OAL210 LGIR-LGKR
Flight info
| Callsign | OAL210 |
|---|---|
| Flight time | 1h 2m |
| Altitude | 32000 |
| Route | EPALO M749 DIRMI UL613 KOR UL53 PARNA |
| Aircraft | B738/M-SDE2E3FGHIRWXY/LB1 |
Departure
| Time | 2026-05-01 07:23 |
|---|---|
| Airport | Heraklion International Nikos Kazantzakis Airport (LGIR) |
Arrival
| Time | 2026-05-01 08:25 |
|---|---|
| Airport | Corfu Ioannis Kapodistrias International Airport (LGKR) |
| Time | Latitude | Longitude | Altitude | Speed | Heading |
|---|---|---|---|---|---|
| 2026-05-01 07:23 | 35.59889 | 25.07400 | 13084 ft | 359 kts | 331° |
| 2026-05-01 07:23 | 35.64319 | 25.04984 | 14585 ft | 366 kts | 331° |
| 2026-05-01 07:24 | 35.66658 | 25.03706 | 15324 ft | 369 kts | 331° |
| 2026-05-01 07:24 | 35.69025 | 25.02411 | 16041 ft | 373 kts | 331° |
| 2026-05-01 07:24 | 35.71410 | 25.01105 | 16757 ft | 377 kts | 332° |
| 2026-05-01 07:24 | 35.73854 | 24.99866 | 17446 ft | 382 kts | 334° |
| 2026-05-01 07:25 | 35.76348 | 24.98695 | 18145 ft | 386 kts | 334° |
| 2026-05-01 07:25 | 35.78876 | 24.97533 | 18762 ft | 389 kts | 334° |
| 2026-05-01 07:25 | 35.81391 | 24.96377 | 19388 ft | 391 kts | 334° |
| 2026-05-01 07:25 | 35.83942 | 24.95197 | 20031 ft | 393 kts | 334° |
| 2026-05-01 07:26 | 35.86510 | 24.93999 | 20644 ft | 395 kts | 334° |
| 2026-05-01 07:26 | 35.89089 | 24.92789 | 21232 ft | 398 kts | 334° |
| 2026-05-01 07:26 | 35.91687 | 24.91566 | 21808 ft | 401 kts | 334° |
| 2026-05-01 07:26 | 35.94300 | 24.90334 | 22389 ft | 403 kts | 333° |
| 2026-05-01 07:27 | 35.96928 | 24.89095 | 22983 ft | 406 kts | 333° |
| 2026-05-01 07:27 | 35.99587 | 24.87840 | 23479 ft | 410 kts | 333° |
| 2026-05-01 07:27 | 36.02262 | 24.86577 | 23943 ft | 412 kts | 333° |
| 2026-05-01 07:27 | 36.04897 | 24.85205 | 24442 ft | 409 kts | 327° |
| 2026-05-01 07:28 | 36.07317 | 24.83406 | 24959 ft | 403 kts | 319° |
| 2026-05-01 07:28 | 36.09509 | 24.81253 | 25465 ft | 401 kts | 316° |
| 2026-05-01 07:28 | 36.11645 | 24.79102 | 25915 ft | 402 kts | 316° |
| 2026-05-01 07:28 | 36.13830 | 24.76904 | 26333 ft | 404 kts | 316° |
| 2026-05-01 07:29 | 36.16020 | 24.74708 | 26771 ft | 405 kts | 316° |
| 2026-05-01 07:29 | 36.18220 | 24.72512 | 27220 ft | 406 kts | 316° |
| 2026-05-01 07:29 | 36.20404 | 24.70337 | 27624 ft | 407 kts | 316° |
| 2026-05-01 07:29 | 36.22611 | 24.68143 | 28124 ft | 405 kts | 316° |
| 2026-05-01 07:30 | 36.24798 | 24.65968 | 28762 ft | 401 kts | 316° |
| 2026-05-01 07:30 | 36.26964 | 24.63817 | 29520 ft | 395 kts | 315° |
| 2026-05-01 07:30 | 36.29088 | 24.61706 | 30238 ft | 389 kts | 315° |
| 2026-05-01 07:30 | 36.31173 | 24.59630 | 30708 ft | 387 kts | 315° |
| 2026-05-01 07:31 | 36.33292 | 24.57515 | 31077 ft | 387 kts | 315° |
| 2026-05-01 07:31 | 36.39568 | 24.51240 | 32044 ft | 388 kts | 315° |
| 2026-05-01 07:32 | 36.43776 | 24.47034 | 32049 ft | 385 kts | 315° |
| 2026-05-01 07:33 | 36.50001 | 24.40792 | 32065 ft | 384 kts | 315° |
| 2026-05-01 07:33 | 36.56239 | 24.34515 | 32069 ft | 385 kts | 315° |
| 2026-05-01 07:34 | 36.62477 | 24.28228 | 32068 ft | 384 kts | 315° |
| 2026-05-01 07:35 | 36.66609 | 24.24061 | 32070 ft | 383 kts | 315° |
| 2026-05-01 07:35 | 36.70747 | 24.19871 | 32072 ft | 383 kts | 315° |
| 2026-05-01 07:36 | 36.74888 | 24.15677 | 32077 ft | 382 kts | 315° |
| 2026-05-01 07:36 | 36.78997 | 24.11512 | 32081 ft | 383 kts | 315° |
| 2026-05-01 07:37 | 36.85202 | 24.05207 | 32082 ft | 383 kts | 314° |
| 2026-05-01 07:37 | 36.89304 | 24.01033 | 32080 ft | 382 kts | 314° |
| 2026-05-01 07:38 | 36.93306 | 23.96957 | 32084 ft | 382 kts | 314° |
| 2026-05-01 07:39 | 36.99486 | 23.90660 | 32085 ft | 381 kts | 314° |
| 2026-05-01 07:39 | 37.05596 | 23.84417 | 32091 ft | 382 kts | 314° |
| 2026-05-01 07:40 | 37.09707 | 23.80209 | 32088 ft | 381 kts | 314° |
| 2026-05-01 07:40 | 37.13826 | 23.75985 | 32103 ft | 382 kts | 314° |
| 2026-05-01 07:41 | 37.17938 | 23.71764 | 32090 ft | 381 kts | 314° |
| 2026-05-01 07:42 | 37.24067 | 23.65461 | 32098 ft | 381 kts | 314° |
| 2026-05-01 07:42 | 37.28166 | 23.61239 | 32098 ft | 380 kts | 314° |
| 2026-05-01 07:43 | 37.32250 | 23.57026 | 32101 ft | 380 kts | 314° |
| 2026-05-01 07:43 | 37.38348 | 23.50722 | 32102 ft | 379 kts | 314° |
| 2026-05-01 07:44 | 37.46528 | 23.42243 | 32117 ft | 381 kts | 314° |
| 2026-05-01 07:45 | 37.50602 | 23.38009 | 32111 ft | 382 kts | 314° |
| 2026-05-01 07:45 | 37.54698 | 23.33750 | 32112 ft | 382 kts | 314° |
| 2026-05-01 07:46 | 37.58791 | 23.29487 | 32114 ft | 381 kts | 314° |
| 2026-05-01 07:47 | 37.64229 | 23.23814 | 32109 ft | 380 kts | 314° |
| 2026-05-01 07:47 | 37.68332 | 23.19524 | 32142 ft | 381 kts | 314° |
| 2026-05-01 07:48 | 37.74431 | 23.13137 | 32126 ft | 381 kts | 314° |
| 2026-05-01 07:48 | 37.78506 | 23.08862 | 32122 ft | 379 kts | 313° |
| 2026-05-01 07:49 | 37.84577 | 23.02483 | 32123 ft | 377 kts | 313° |
| 2026-05-01 07:50 | 37.88508 | 22.98341 | 32125 ft | 376 kts | 313° |
| 2026-05-01 07:50 | 37.94172 | 22.91563 | 32125 ft | 369 kts | 302° |
| 2026-05-01 07:51 | 37.97085 | 22.86248 | 32143 ft | 370 kts | 301° |
| 2026-05-01 07:52 | 38.01500 | 22.78177 | 32133 ft | 373 kts | 301° |
| 2026-05-01 07:52 | 38.04468 | 22.72775 | 32130 ft | 373 kts | 301° |
| 2026-05-01 07:53 | 38.08903 | 22.64702 | 32135 ft | 373 kts | 301° |
| 2026-05-01 07:53 | 38.11865 | 22.59291 | 32137 ft | 372 kts | 301° |
| 2026-05-01 07:55 | 38.19243 | 22.45778 | 32130 ft | 371 kts | 301° |
| 2026-05-01 07:56 | 38.26572 | 22.32298 | 32111 ft | 371 kts | 300° |
| 2026-05-01 07:57 | 38.30969 | 22.24190 | 32144 ft | 372 kts | 300° |
| 2026-05-01 07:58 | 38.36828 | 22.13350 | 32131 ft | 374 kts | 301° |
| 2026-05-01 07:59 | 38.42753 | 22.02366 | 32122 ft | 376 kts | 300° |
| 2026-05-01 08:00 | 38.51477 | 21.86114 | 32091 ft | 371 kts | 300° |
| 2026-05-01 08:01 | 38.57288 | 21.75235 | 32078 ft | 370 kts | 300° |
| 2026-05-01 08:02 | 38.61608 | 21.67104 | 31478 ft | 366 kts | 300° |
| 2026-05-01 08:02 | 38.63024 | 21.64441 | 31078 ft | 359 kts | 300° |
| 2026-05-01 08:03 | 38.65794 | 21.59215 | 30081 ft | 350 kts | 300° |
| 2026-05-01 08:03 | 38.67154 | 21.56647 | 29534 ft | 346 kts | 300° |
| 2026-05-01 08:03 | 38.69815 | 21.51613 | 28551 ft | 338 kts | 300° |
| 2026-05-01 08:04 | 38.72433 | 21.46658 | 27246 ft | 340 kts | 300° |
| 2026-05-01 08:04 | 38.75047 | 21.41692 | 26200 ft | 336 kts | 300° |
| 2026-05-01 08:05 | 38.77639 | 21.36763 | 25247 ft | 331 kts | 300° |
| 2026-05-01 08:05 | 38.78925 | 21.34316 | 24786 ft | 330 kts | 300° |
| 2026-05-01 08:05 | 38.80203 | 21.31882 | 24326 ft | 329 kts | 300° |
| 2026-05-01 08:06 | 38.82745 | 21.27032 | 23373 ft | 326 kts | 301° |
| 2026-05-01 08:06 | 38.85259 | 21.22228 | 22393 ft | 323 kts | 301° |
| 2026-05-01 08:07 | 38.87740 | 21.17481 | 21498 ft | 319 kts | 301° |
| 2026-05-01 08:07 | 38.90212 | 21.12739 | 20585 ft | 321 kts | 301° |
| 2026-05-01 08:08 | 38.91458 | 21.10346 | 20133 ft | 323 kts | 301° |
| 2026-05-01 08:08 | 38.93941 | 21.05576 | 19255 ft | 319 kts | 301° |
| 2026-05-01 08:09 | 38.96385 | 21.00879 | 18393 ft | 317 kts | 301° |
| 2026-05-01 08:09 | 38.97542 | 20.98652 | 17929 ft | 317 kts | 301° |
| 2026-05-01 08:09 | 38.98768 | 20.96288 | 17412 ft | 317 kts | 301° |
| 2026-05-01 08:10 | 39.01181 | 20.91633 | 15991 ft | 330 kts | 302° |
| 2026-05-01 08:10 | 39.03716 | 20.86739 | 15045 ft | 327 kts | 302° |
| 2026-05-01 08:11 | 39.06230 | 20.81881 | 14102 ft | 325 kts | 303° |
| 2026-05-01 08:11 | 39.08733 | 20.77039 | 13128 ft | 324 kts | 303° |
| 2026-05-01 08:12 | 39.11196 | 20.72261 | 12200 ft | 320 kts | 303° |
| 2026-05-01 08:12 | 39.12429 | 20.69866 | 11652 ft | 322 kts | 302° |
| 2026-05-01 08:12 | 39.14882 | 20.65097 | 10779 ft | 317 kts | 302° |
| 2026-05-01 08:13 | 39.16082 | 20.62764 | 10627 ft | 307 kts | 302° |
| 2026-05-01 08:13 | 39.17243 | 20.60504 | 10495 ft | 297 kts | 302° |
| 2026-05-01 08:13 | 39.19458 | 20.56184 | 10231 ft | 279 kts | 301° |
| 2026-05-01 08:14 | 39.20514 | 20.54126 | 10106 ft | 270 kts | 301° |
| 2026-05-01 08:14 | 39.21542 | 20.52121 | 9872 ft | 267 kts | 301° |
| 2026-05-01 08:14 | 39.22564 | 20.50123 | 9570 ft | 267 kts | 301° |
| 2026-05-01 08:14 | 39.23570 | 20.48157 | 9271 ft | 265 kts | 301° |
| 2026-05-01 08:15 | 39.24589 | 20.46177 | 8961 ft | 265 kts | 303° |
| 2026-05-01 08:15 | 39.26580 | 20.42177 | 8269 ft | 267 kts | 298° |
| 2026-05-01 08:15 | 39.27402 | 20.39993 | 7852 ft | 271 kts | 294° |
| 2026-05-01 08:16 | 39.28172 | 20.37768 | 7544 ft | 271 kts | 293° |
| 2026-05-01 08:16 | 39.28936 | 20.35546 | 7251 ft | 271 kts | 293° |
| 2026-05-01 08:16 | 39.29707 | 20.33323 | 6959 ft | 271 kts | 293° |
| 2026-05-01 08:16 | 39.30481 | 20.31108 | 6668 ft | 270 kts | 294° |
| 2026-05-01 08:17 | 39.31258 | 20.28902 | 6368 ft | 269 kts | 294° |
| 2026-05-01 08:17 | 39.32027 | 20.26726 | 6072 ft | 268 kts | 294° |
| 2026-05-01 08:17 | 39.32803 | 20.24537 | 5772 ft | 268 kts | 294° |
| 2026-05-01 08:17 | 39.33581 | 20.22344 | 5458 ft | 268 kts | 294° |
| 2026-05-01 08:18 | 39.34355 | 20.20161 | 5174 ft | 267 kts | 294° |
| 2026-05-01 08:18 | 39.35908 | 20.15784 | 4558 ft | 267 kts | 294° |
| 2026-05-01 08:19 | 39.37430 | 20.11493 | 4152 ft | 257 kts | 294° |
| 2026-05-01 08:19 | 39.38159 | 20.09432 | 4071 ft | 245 kts | 294° |
| 2026-05-01 08:19 | 39.38851 | 20.07487 | 3964 ft | 232 kts | 294° |
| 2026-05-01 08:19 | 39.39503 | 20.05641 | 3869 ft | 219 kts | 294° |
| 2026-05-01 08:20 | 39.40118 | 20.03901 | 3771 ft | 207 kts | 294° |
| 2026-05-01 08:20 | 39.40700 | 20.02259 | 3660 ft | 196 kts | 294° |
| 2026-05-01 08:20 | 39.41262 | 20.00667 | 3464 ft | 192 kts | 294° |
| 2026-05-01 08:20 | 39.41772 | 19.99222 | 3290 ft | 186 kts | 295° |
| 2026-05-01 08:21 | 39.42491 | 19.97885 | 3074 ft | 178 kts | 329° |
| 2026-05-01 08:21 | 39.43630 | 19.97443 | 3000 ft | 173 kts | 349° |
| 2026-05-01 08:21 | 39.44795 | 19.96928 | 2801 ft | 178 kts | 342° |
| 2026-05-01 08:21 | 39.45960 | 19.96440 | 2599 ft | 172 kts | 346° |
| 2026-05-01 08:22 | 39.47045 | 19.95991 | 2466 ft | 157 kts | 342° |
| 2026-05-01 08:22 | 39.47981 | 19.95346 | 2339 ft | 151 kts | 330° |
| 2026-05-01 08:22 | 39.48872 | 19.94651 | 2239 ft | 149 kts | 335° |
| 2026-05-01 08:22 | 39.49820 | 19.94124 | 2171 ft | 148 kts | 343° |
| 2026-05-01 08:23 | 39.50792 | 19.93711 | 2095 ft | 147 kts | 348° |
| 2026-05-01 08:23 | 39.51795 | 19.93406 | 1908 ft | 149 kts | 350° |
| 2026-05-01 08:23 | 39.52809 | 19.93113 | 1668 ft | 150 kts | 349° |
| 2026-05-01 08:23 | 39.53828 | 19.92851 | 1273 ft | 149 kts | 351° |
| 2026-05-01 08:24 | 39.54844 | 19.92573 | 917 ft | 145 kts | 351° |
| 2026-05-01 08:24 | 39.55805 | 19.92319 | 709 ft | 142 kts | 351° |
| 2026-05-01 08:24 | 39.56771 | 19.92091 | 478 ft | 140 kts | 352° |
| 2026-05-01 08:24 | 39.57742 | 19.91847 | 303 ft | 142 kts | 352° |
| 2026-05-01 08:25 | 39.58696 | 19.91596 | 138 ft | 143 kts | 350° |
| 2026-05-01 08:25 | 39.59661 | 19.91347 | 12 ft | 134 kts | 351° |
| 2026-05-01 08:25 | 39.60401 | 19.91167 | 7 ft | 72 kts | 349° |
| 2026-05-01 08:25 | 39.60614 | 19.91297 | 9 ft | 33 kts | 74° |
| 2026-05-01 08:26 | 39.60667 | 19.91368 | 8 ft | 0 kts | 267° |